1C5 weather

Bolingbrook's Clow International Airport
Bolingbrook, Illinois, United States

Public forecast

Using degrees Fahrenheit for public forecast. Weather courtesy of forecast.io.

Closest aviation weather report (METAR) to Bolingbrook's Clow International Airport

Closest report is Lewis University Airport, 5.5 nm (10.2 km) SSE. Retrieved 2019/10/14 14:35 UTC (0 seconds ago):

KLOT 141435Z AUTO 29007KT 10SM CLR 07/02 A3011 RMK AO2 T00650016

Closest aviation forecast (TAF) to Bolingbrook's Clow International Airport

Closest forecast is Dupage Airport, 13.8 nm (25.5 km) NNW. Retrieved 2019/10/14 12:22 UTC (2 hours ago):

TAF KDPA 141120Z 1412/1512 27006KT P6SM SKC FM150100 16004KT P6SM SCT250